sensor_id;sensor_type;location;lat;lon;timestamp;pressure;altitude;pressure_sealevel;temperature;humidity
77450;BME280;66536;53.150;18.172;2023-07-02T00:00:31;99903.52;;;20.09;57.87
77450;BME280;66536;53.150;18.172;2023-07-02T00:03:17;99908.14;;;20.09;57.86
77450;BME280;66536;53.150;18.172;2023-07-02T00:05:47;99907.16;;;20.08;57.98
77450;BME280;66536;53.150;18.172;2023-07-02T00:08:16;99908.48;;;20.07;57.98
77450;BME280;66536;53.150;18.172;2023-07-02T00:10:43;99909.43;;;20.04;58.11
77450;BME280;66536;53.150;18.172;2023-07-02T00:13:09;99902.98;;;20.03;58.27
77450;BME280;66536;53.150;18.172;2023-07-02T00:15:35;99905.06;;;20.02;58.33
77450;BME280;66536;53.150;18.172;2023-07-02T00:18:01;99903.98;;;20.00;58.28
77450;BME280;66536;53.150;18.172;2023-07-02T00:20:27;99908.27;;;19.98;58.39
77450;BME280;66536;53.150;18.172;2023-07-02T00:22:53;99910.92;;;19.96;58.51
77450;BME280;66536;53.150;18.172;2023-07-02T00:25:20;99914.67;;;19.95;58.49
77450;BME280;66536;53.150;18.172;2023-07-02T00:27:46;99915.38;;;19.93;58.63
77450;BME280;66536;53.150;18.172;2023-07-02T00:30:12;99912.22;;;19.91;58.78
77450;BME280;66536;53.150;18.172;2023-07-02T00:32:38;99909.95;;;19.87;58.89
77450;BME280;66536;53.150;18.172;2023-07-02T00:35:05;99907.08;;;19.83;59.06
77450;BME280;66536;53.150;18.172;2023-07-02T00:37:31;99907.59;;;19.80;58.93
77450;BME280;66536;53.150;18.172;2023-07-02T00:39:57;99904.78;;;19.78;59.32
77450;BME280;66536;53.150;18.172;2023-07-02T00:42:23;99905.83;;;19.75;59.17
77450;BME280;66536;53.150;18.172;2023-07-02T00:44:49;99900.46;;;19.72;59.38
77450;BME280;66536;53.150;18.172;2023-07-02T00:47:18;99897.25;;;19.70;59.42
77450;BME280;66536;53.150;18.172;2023-07-02T00:49:44;99897.58;;;19.68;59.59
77450;BME280;66536;53.150;18.172;2023-07-02T00:52:11;99893.03;;;19.63;59.65
77450;BME280;66536;53.150;18.172;2023-07-02T00:54:37;99890.34;;;19.60;59.58
77450;BME280;66536;53.150;18.172;2023-07-02T00:57:03;99891.30;;;19.56;59.70
77450;BME280;66536;53.150;18.172;2023-07-02T00:59:33;99890.41;;;19.51;60.08
77450;BME280;66536;53.150;18.172;2023-07-02T01:02:02;99889.58;;;19.47;60.01
77450;BME280;66536;53.150;18.172;2023-07-02T01:04:28;99884.17;;;19.44;60.13
77450;BME280;66536;53.150;18.172;2023-07-02T01:06:56;99882.15;;;19.42;60.48
77450;BME280;66536;53.150;18.172;2023-07-02T01:09:25;99880.38;;;19.40;60.41
77450;BME280;66536;53.150;18.172;2023-07-02T01:11:54;99880.30;;;19.38;60.76
77450;BME280;66536;53.150;18.172;2023-07-02T01:14:26;99877.33;;;19.36;60.76
77450;BME280;66536;53.150;18.172;2023-07-02T01:16:56;99878.93;;;19.35;61.05
77450;BME280;66536;53.150;18.172;2023-07-02T01:22:19;99882.54;;;19.30;61.55
77450;BME280;66536;53.150;18.172;2023-07-02T01:24:45;99885.80;;;19.26;61.79
77450;BME280;66536;53.150;18.172;2023-07-02T01:27:14;99881.09;;;19.21;61.62
77450;BME280;66536;53.150;18.172;2023-07-02T01:29:41;99877.64;;;19.19;61.94
77450;BME280;66536;53.150;18.172;2023-07-02T01:32:08;99878.04;;;19.17;62.27
77450;BME280;66536;53.150;18.172;2023-07-02T01:34:35;99872.40;;;19.14;62.20
77450;BME280;66536;53.150;18.172;2023-07-02T01:37:02;99872.64;;;19.12;62.77
77450;BME280;66536;53.150;18.172;2023-07-02T01:39:29;99870.86;;;19.08;62.65
77450;BME280;66536;53.150;18.172;2023-07-02T01:42:07;99871.30;;;19.05;62.79
77450;BME280;66536;53.150;18.172;2023-07-02T01:44:34;99874.02;;;19.02;63.31
77450;BME280;66536;53.150;18.172;2023-07-02T01:47:00;99876.17;;;18.97;63.91
77450;BME280;66536;53.150;18.172;2023-07-02T01:49:26;99875.61;;;18.92;63.87
77450;BME280;66536;53.150;18.172;2023-07-02T01:51:54;99872.55;;;18.88;64.14
77450;BME280;66536;53.150;18.172;2023-07-02T01:54:22;99871.02;;;18.84;64.39
77450;BME280;66536;53.150;18.172;2023-07-02T01:56:48;99875.16;;;18.81;64.70
77450;BME280;66536;53.150;18.172;2023-07-02T01:59:15;99871.41;;;18.77;64.91
77450;BME280;66536;53.150;18.172;2023-07-02T02:01:41;99870.25;;;18.74;65.59
77450;BME280;66536;53.150;18.172;2023-07-02T02:04:09;99873.48;;;18.72;65.56
77450;BME280;66536;53.150;18.172;2023-07-02T02:06:36;99866.93;;;18.66;66.97
77450;BME280;66536;53.150;18.172;2023-07-02T02:09:02;99864.30;;;18.57;67.18
77450;BME280;66536;53.150;18.172;2023-07-02T02:11:31;99863.28;;;18.50;67.06
77450;BME280;66536;53.150;18.172;2023-07-02T02:13:58;99866.41;;;18.46;67.14
77450;BME280;66536;53.150;18.172;2023-07-02T02:16:27;99863.81;;;18.42;67.59
77450;BME280;66536;53.150;18.172;2023-07-02T02:18:53;99859.36;;;18.40;67.49
77450;BME280;66536;53.150;18.172;2023-07-02T02:21:21;99857.96;;;18.39;67.86
77450;BME280;66536;53.150;18.172;2023-07-02T02:23:48;99853.52;;;18.37;67.46
77450;BME280;66536;53.150;18.172;2023-07-02T02:26:15;99854.20;;;18.37;68.18
77450;BME280;66536;53.150;18.172;2023-07-02T02:28:42;99854.65;;;18.34;67.89
77450;BME280;66536;53.150;18.172;2023-07-02T02:31:08;99853.70;;;18.33;68.07
77450;BME280;66536;53.150;18.172;2023-07-02T02:33:35;99858.05;;;18.34;68.14
77450;BME280;66536;53.150;18.172;2023-07-02T02:36:02;99856.26;;;18.37;68.17
77450;BME280;66536;53.150;18.172;2023-07-02T02:38:29;99855.81;;;18.39;68.08
77450;BME280;66536;53.150;18.172;2023-07-02T02:40:55;99856.80;;;18.42;68.34
77450;BME280;66536;53.150;18.172;2023-07-02T02:43:21;99862.21;;;18.46;68.67
77450;BME280;66536;53.150;18.172;2023-07-02T02:45:48;99863.15;;;18.47;69.26
77450;BME280;66536;53.150;18.172;2023-07-02T02:48:14;99863.98;;;18.46;69.05
77450;BME280;66536;53.150;18.172;2023-07-02T02:50:40;99864.20;;;18.46;69.45
77450;BME280;66536;53.150;18.172;2023-07-02T02:53:10;99860.08;;;18.44;69.98
77450;BME280;66536;53.150;18.172;2023-07-02T02:55:36;99858.20;;;18.43;70.45
77450;BME280;66536;53.150;18.172;2023-07-02T02:58:03;99854.55;;;18.40;70.92
77450;BME280;66536;53.150;18.172;2023-07-02T03:00:29;99849.08;;;18.35;71.66
77450;BME280;66536;53.150;18.172;2023-07-02T03:02:55;99853.08;;;18.29;71.77
77450;BME280;66536;53.150;18.172;2023-07-02T03:05:22;99850.61;;;18.23;72.13
77450;BME280;66536;53.150;18.172;2023-07-02T03:07:51;99848.70;;;18.20;72.35
77450;BME280;66536;53.150;18.172;2023-07-02T03:10:17;99852.10;;;18.20;72.11
77450;BME280;66536;53.150;18.172;2023-07-02T03:12:43;99849.36;;;18.22;72.51
77450;BME280;66536;53.150;18.172;2023-07-02T03:15:10;99851.25;;;18.22;73.68
77450;BME280;66536;53.150;18.172;2023-07-02T03:17:37;99849.32;;;18.15;73.77
77450;BME280;66536;53.150;18.172;2023-07-02T03:20:04;99851.17;;;18.13;73.66
77450;BME280;66536;53.150;18.172;2023-07-02T03:22:30;99846.80;;;18.15;73.71
77450;BME280;66536;53.150;18.172;2023-07-02T03:24:57;99849.81;;;18.19;73.73
77450;BME280;66536;53.150;18.172;2023-07-02T03:27:23;99852.28;;;18.23;74.17
77450;BME280;66536;53.150;18.172;2023-07-02T03:29:49;99846.56;;;18.29;73.93
77450;BME280;66536;53.150;18.172;2023-07-02T03:32:15;99846.45;;;18.37;73.64
77450;BME280;66536;53.150;18.172;2023-07-02T03:35:01;99845.86;;;18.46;73.60
77450;BME280;66536;53.150;18.172;2023-07-02T03:37:27;99844.26;;;18.58;73.25
77450;BME280;66536;53.150;18.172;2023-07-02T03:39:52;99846.05;;;18.71;72.90
77450;BME280;66536;53.150;18.172;2023-07-02T03:42:19;99842.96;;;18.80;72.62
77450;BME280;66536;53.150;18.172;2023-07-02T03:44:45;99840.39;;;18.85;72.45
77450;BME280;66536;53.150;18.172;2023-07-02T03:47:11;99839.59;;;18.91;72.40
77450;BME280;66536;53.150;18.172;2023-07-02T03:49:38;99838.90;;;18.95;72.26
77450;BME280;66536;53.150;18.172;2023-07-02T03:52:24;99844.02;;;18.97;72.11
77450;BME280;66536;53.150;18.172;2023-07-02T03:54:50;99845.15;;;18.95;72.11
77450;BME280;66536;53.150;18.172;2023-07-02T03:57:16;99847.57;;;18.94;72.07
77450;BME280;66536;53.150;18.172;2023-07-02T03:59:42;99850.20;;;18.98;71.92
77450;BME280;66536;53.150;18.172;2023-07-02T04:02:07;99847.64;;;19.05;72.07
77450;BME280;66536;53.150;18.172;2023-07-02T04:04:34;99845.64;;;19.11;71.82
77450;BME280;66536;53.150;18.172;2023-07-02T04:07:00;99842.12;;;19.19;71.49
77450;BME280;66536;53.150;18.172;2023-07-02T04:09:25;99842.64;;;19.26;71.19
77450;BME280;66536;53.150;18.172;2023-07-02T04:11:52;99843.62;;;19.28;71.28
77450;BME280;66536;53.150;18.172;2023-07-02T04:14:18;99842.14;;;19.29;71.10
77450;BME280;66536;53.150;18.172;2023-07-02T04:16:44;99840.63;;;19.28;70.94
77450;BME280;66536;53.150;18.172;2023-07-02T04:19:10;99838.52;;;19.30;70.89
77450;BME280;66536;53.150;18.172;2023-07-02T04:21:56;99837.46;;;19.29;70.50
77450;BME280;66536;53.150;18.172;2023-07-02T04:24:22;99834.41;;;19.31;70.86
77450;BME280;66536;53.150;18.172;2023-07-02T04:26:48;99831.55;;;19.35;70.77
77450;BME280;66536;53.150;18.172;2023-07-02T04:29:14;99829.90;;;19.46;70.53
77450;BME280;66536;53.150;18.172;2023-07-02T04:31:40;99832.46;;;19.65;69.99
77450;BME280;66536;53.150;18.172;2023-07-02T04:34:06;99829.92;;;19.73;69.94
77450;BME280;66536;53.150;18.172;2023-07-02T04:36:32;99827.61;;;19.76;69.57
77450;BME280;66536;53.150;18.172;2023-07-02T04:38:58;99827.41;;;19.82;69.37
77450;BME280;66536;53.150;18.172;2023-07-02T04:41:24;99828.86;;;19.83;69.26
77450;BME280;66536;53.150;18.172;2023-07-02T04:43:50;99833.52;;;19.85;69.18
77450;BME280;66536;53.150;18.172;2023-07-02T04:46:16;99836.63;;;19.90;69.02
77450;BME280;66536;53.150;18.172;2023-07-02T04:48:43;99835.23;;;19.96;68.74
77450;BME280;66536;53.150;18.172;2023-07-02T04:51:09;99841.04;;;20.00;68.53
77450;BME280;66536;53.150;18.172;2023-07-02T04:53:35;99837.42;;;19.95;68.37
77450;BME280;66536;53.150;18.172;2023-07-02T04:56:03;99839.55;;;19.85;68.59
77450;BME280;66536;53.150;18.172;2023-07-02T04:58:49;99836.27;;;19.77;68.67
77450;BME280;66536;53.150;18.172;2023-07-02T05:01:15;99838.59;;;19.69;68.88
77450;BME280;66536;53.150;18.172;2023-07-02T05:03:41;99845.90;;;19.64;68.84
77450;BME280;66536;53.150;18.172;2023-07-02T05:06:07;99845.00;;;19.62;69.22
77450;BME280;66536;53.150;18.172;2023-07-02T05:08:33;99853.38;;;19.60;69.51
77450;BME280;66536;53.150;18.172;2023-07-02T05:10:59;99848.25;;;19.59;70.51
77450;BME280;66536;53.150;18.172;2023-07-02T05:13:25;99856.86;;;19.52;71.70
77450;BME280;66536;53.150;18.172;2023-07-02T05:15:51;99865.51;;;19.38;72.49
77450;BME280;66536;53.150;18.172;2023-07-02T05:18:17;99868.02;;;19.17;73.81
77450;BME280;66536;53.150;18.172;2023-07-02T05:20:43;99876.17;;;18.93;74.84
77450;BME280;66536;53.150;18.172;2023-07-02T05:23:09;99881.33;;;18.77;75.11
77450;BME280;66536;53.150;18.172;2023-07-02T05:25:35;99885.23;;;18.61;75.78
77450;BME280;66536;53.150;18.172;2023-07-02T05:28:01;99897.80;;;18.45;76.34
77450;BME280;66536;53.150;18.172;2023-07-02T05:30:27;99887.05;;;18.32;76.82
77450;BME280;66536;53.150;18.172;2023-07-02T05:32:53;99891.73;;;18.29;76.89
77450;BME280;66536;53.150;18.172;2023-07-02T05:35:18;99893.27;;;18.34;76.63
77450;BME280;66536;53.150;18.172;2023-07-02T05:37:44;99900.60;;;18.42;76.21
77450;BME280;66536;53.150;18.172;2023-07-02T05:40:11;99898.66;;;18.55;76.21
77450;BME280;66536;53.150;18.172;2023-07-02T05:42:37;99901.08;;;18.66;76.25
77450;BME280;66536;53.150;18.172;2023-07-02T05:45:03;99900.28;;;18.76;75.76
77450;BME280;66536;53.150;18.172;2023-07-02T05:47:30;99901.06;;;18.85;75.55
77450;BME280;66536;53.150;18.172;2023-07-02T05:49:56;99903.73;;;18.95;75.10
77450;BME280;66536;53.150;18.172;2023-07-02T05:52:22;99904.27;;;19.04;74.54
77450;BME280;66536;53.150;18.172;2023-07-02T05:54:48;99908.20;;;19.14;74.34
77450;BME280;66536;53.150;18.172;2023-07-02T05:57:14;99901.12;;;19.31;73.40
77450;BME280;66536;53.150;18.172;2023-07-02T05:59:40;99901.35;;;19.55;72.79
77450;BME280;66536;53.150;18.172;2023-07-02T06:02:06;99908.46;;;19.81;72.05
77450;BME280;66536;53.150;18.172;2023-07-02T06:04:32;99906.98;;;19.92;71.53
77450;BME280;66536;53.150;18.172;2023-07-02T06:06:58;99906.65;;;19.97;71.50
77450;BME280;66536;53.150;18.172;2023-07-02T06:09:24;99902.59;;;19.99;71.52
77450;BME280;66536;53.150;18.172;2023-07-02T06:11:50;99899.71;;;20.01;71.06
77450;BME280;66536;53.150;18.172;2023-07-02T06:14:15;99895.15;;;20.00;71.12
77450;BME280;66536;53.150;18.172;2023-07-02T06:16:41;99893.05;;;20.03;70.94
77450;BME280;66536;53.150;18.172;2023-07-02T06:19:08;99885.60;;;20.12;70.60
77450;BME280;66536;53.150;18.172;2023-07-02T06:21:33;99890.69;;;20.21;69.78
77450;BME280;66536;53.150;18.172;2023-07-02T06:24:00;99896.30;;;20.26;69.40
77450;BME280;66536;53.150;18.172;2023-07-02T06:26:27;99904.73;;;20.33;68.91
77450;BME280;66536;53.150;18.172;2023-07-02T06:28:53;99909.02;;;20.41;68.34
77450;BME280;66536;53.150;18.172;2023-07-02T06:31:20;99910.81;;;20.46;67.85
77450;BME280;66536;53.150;18.172;2023-07-02T06:33:46;99914.61;;;20.52;67.34
77450;BME280;66536;53.150;18.172;2023-07-02T06:36:12;99919.00;;;20.59;67.26
77450;BME280;66536;53.150;18.172;2023-07-02T06:38:39;99913.23;;;20.73;66.33
77450;BME280;66536;53.150;18.172;2023-07-02T06:41:05;99912.20;;;20.94;65.03
77450;BME280;66536;53.150;18.172;2023-07-02T06:43:31;99915.48;;;21.17;64.98
77450;BME280;66536;53.150;18.172;2023-07-02T06:45:57;99924.45;;;21.23;62.28
77450;BME280;66536;53.150;18.172;2023-07-02T06:48:23;99908.08;;;21.30;61.78
77450;BME280;66536;53.150;18.172;2023-07-02T06:50:49;99919.41;;;21.49;60.08
77450;BME280;66536;53.150;18.172;2023-07-02T06:53:15;99927.27;;;21.66;59.40
77450;BME280;66536;53.150;18.172;2023-07-02T06:55:41;99918.69;;;21.75;58.49
77450;BME280;66536;53.150;18.172;2023-07-02T06:58:08;99909.82;;;22.02;56.70
77450;BME280;66536;53.150;18.172;2023-07-02T07:00:34;99926.74;;;22.29;55.25
77450;BME280;66536;53.150;18.172;2023-07-02T07:03:03;99925.87;;;22.63;55.43
77450;BME280;66536;53.150;18.172;2023-07-02T07:05:30;99931.99;;;22.94;53.51
77450;BME280;66536;53.150;18.172;2023-07-02T07:07:57;99924.11;;;22.95;52.17
77450;BME280;66536;53.150;18.172;2023-07-02T07:10:24;99945.05;;;22.78;51.65
77450;BME280;66536;53.150;18.172;2023-07-02T07:12:50;99950.33;;;22.53;53.03
77450;BME280;66536;53.150;18.172;2023-07-02T07:15:16;99945.63;;;22.48;54.10
77450;BME280;66536;53.150;18.172;2023-07-02T07:17:42;99948.25;;;22.63;53.14
77450;BME280;66536;53.150;18.172;2023-07-02T07:20:08;99948.39;;;22.65;52.08
77450;BME280;66536;53.150;18.172;2023-07-02T07:22:34;99952.05;;;22.53;52.32
77450;BME280;66536;53.150;18.172;2023-07-02T07:25:00;99951.09;;;22.37;52.39
77450;BME280;66536;53.150;18.172;2023-07-02T07:27:26;99965.46;;;22.12;52.60
77450;BME280;66536;53.150;18.172;2023-07-02T07:29:52;99962.55;;;21.99;53.69
77450;BME280;66536;53.150;18.172;2023-07-02T07:32:20;99965.75;;;22.01;53.52
77450;BME280;66536;53.150;18.172;2023-07-02T07:34:46;99965.33;;;22.06;53.78
77450;BME280;66536;53.150;18.172;2023-07-02T07:37:12;99970.52;;;22.25;53.49
77450;BME280;66536;53.150;18.172;2023-07-02T07:39:38;99968.11;;;22.60;52.54
77450;BME280;66536;53.150;18.172;2023-07-02T07:42:04;99965.52;;;22.82;50.75
77450;BME280;66536;53.150;18.172;2023-07-02T07:44:30;99965.08;;;22.75;50.17
77450;BME280;66536;53.150;18.172;2023-07-02T07:46:56;99966.23;;;22.59;50.84
77450;BME280;66536;53.150;18.172;2023-07-02T07:49:22;99960.39;;;22.47;50.47
77450;BME280;66536;53.150;18.172;2023-07-02T07:51:48;99951.39;;;22.22;50.53
77450;BME280;66536;53.150;18.172;2023-07-02T07:54:15;99956.88;;;22.12;51.00
77450;BME280;66536;53.150;18.172;2023-07-02T07:56:40;99966.28;;;22.17;50.92
77450;BME280;66536;53.150;18.172;2023-07-02T07:59:06;99956.91;;;22.32;49.81
77450;BME280;66536;53.150;18.172;2023-07-02T08:01:32;99961.98;;;22.51;49.10
77450;BME280;66536;53.150;18.172;2023-07-02T08:03:58;99972.80;;;22.68;48.67
77450;BME280;66536;53.150;18.172;2023-07-02T08:06:24;99980.64;;;22.63;47.83
77450;BME280;66536;53.150;18.172;2023-07-02T08:08:50;99966.55;;;22.71;48.26
77450;BME280;66536;53.150;18.172;2023-07-02T08:11:16;99968.50;;;22.92;48.31
77450;BME280;66536;53.150;18.172;2023-07-02T08:13:42;99978.36;;;23.08;46.63
77450;BME280;66536;53.150;18.172;2023-07-02T08:16:08;99968.17;;;23.06;45.78
77450;BME280;66536;53.150;18.172;2023-07-02T08:18:35;99982.06;;;22.97;45.30
77450;BME280;66536;53.150;18.172;2023-07-02T08:21:01;99980.02;;;23.04;44.93
77450;BME280;66536;53.150;18.172;2023-07-02T08:23:28;99969.23;;;23.04;44.85
77450;BME280;66536;53.150;18.172;2023-07-02T08:25:54;99976.91;;;22.89;44.86
77450;BME280;66536;53.150;18.172;2023-07-02T08:28:20;99968.74;;;22.76;44.79
77450;BME280;66536;53.150;18.172;2023-07-02T08:30:46;99986.52;;;22.51;44.87
77450;BME280;66536;53.150;18.172;2023-07-02T08:33:12;99978.60;;;22.27;45.79
77450;BME280;66536;53.150;18.172;2023-07-02T08:35:38;99992.64;;;22.09;45.86
77450;BME280;66536;53.150;18.172;2023-07-02T08:38:05;99988.02;;;22.05;45.83
77450;BME280;66536;53.150;18.172;2023-07-02T08:40:34;99992.67;;;21.93;46.16
77450;BME280;66536;53.150;18.172;2023-07-02T08:42:59;99986.90;;;21.89;45.34
77450;BME280;66536;53.150;18.172;2023-07-02T08:45:26;99990.36;;;21.88;45.89
77450;BME280;66536;53.150;18.172;2023-07-02T08:47:53;99984.73;;;21.92;45.76
77450;BME280;66536;53.150;18.172;2023-07-02T08:50:22;99989.73;;;22.02;45.91
77450;BME280;66536;53.150;18.172;2023-07-02T08:52:50;99985.11;;;22.06;45.64
77450;BME280;66536;53.150;18.172;2023-07-02T08:55:16;99989.67;;;22.27;45.56
77450;BME280;66536;53.150;18.172;2023-07-02T08:57:49;99996.71;;;22.30;44.75
77450;BME280;66536;53.150;18.172;2023-07-02T09:00:16;100003.40;;;22.44;43.89
77450;BME280;66536;53.150;18.172;2023-07-02T09:02:42;100005.55;;;22.69;43.72
77450;BME280;66536;53.150;18.172;2023-07-02T09:05:08;99988.92;;;22.86;43.29
77450;BME280;66536;53.150;18.172;2023-07-02T09:07:43;99988.92;;;23.06;41.95
77450;BME280;66536;53.150;18.172;2023-07-02T09:10:10;100001.02;;;22.98;41.93
77450;BME280;66536;53.150;18.172;2023-07-02T09:12:36;99978.65;;;22.97;42.37
77450;BME280;66536;53.150;18.172;2023-07-02T09:15:05;99995.46;;;23.16;42.13
77450;BME280;66536;53.150;18.172;2023-07-02T09:17:34;99998.96;;;23.35;41.66
77450;BME280;66536;53.150;18.172;2023-07-02T09:20:03;99978.08;;;23.43;41.38
77450;BME280;66536;53.150;18.172;2023-07-02T09:22:32;100000.88;;;23.47;40.56
77450;BME280;66536;53.150;18.172;2023-07-02T09:24:59;100001.23;;;23.45;39.67
77450;BME280;66536;53.150;18.172;2023-07-02T09:27:38;99986.29;;;23.34;40.14
77450;BME280;66536;53.150;18.172;2023-07-02T09:30:10;99981.19;;;23.34;41.15
77450;BME280;66536;53.150;18.172;2023-07-02T09:32:39;99974.52;;;23.48;40.47
77450;BME280;66536;53.150;18.172;2023-07-02T09:35:06;99988.70;;;23.56;40.41
77450;BME280;66536;53.150;18.172;2023-07-02T09:37:32;99984.27;;;23.60;39.68
77450;BME280;66536;53.150;18.172;2023-07-02T09:39:59;99990.11;;;23.62;39.44
77450;BME280;66536;53.150;18.172;2023-07-02T09:42:26;99999.77;;;23.80;39.06
77450;BME280;66536;53.150;18.172;2023-07-02T09:44:55;100004.48;;;24.12;39.19
77450;BME280;66536;53.150;18.172;2023-07-02T09:47:22;99994.66;;;24.58;38.99
77450;BME280;66536;53.150;18.172;2023-07-02T09:50:02;99984.19;;;24.90;37.62
77450;BME280;66536;53.150;18.172;2023-07-02T09:52:29;99976.33;;;24.99;37.29
77450;BME280;66536;53.150;18.172;2023-07-02T09:54:55;99992.25;;;24.91;36.76
77450;BME280;66536;53.150;18.172;2023-07-02T09:57:22;99981.59;;;24.69;37.09
77450;BME280;66536;53.150;18.172;2023-07-02T09:59:48;99997.14;;;24.47;37.00
77450;BME280;66536;53.150;18.172;2023-07-02T10:02:14;99987.05;;;24.28;37.28
77450;BME280;66536;53.150;18.172;2023-07-02T10:04:44;99977.20;;;24.10;37.15
77450;BME280;66536;53.150;18.172;2023-07-02T10:07:11;99970.52;;;24.08;37.13
77450;BME280;66536;53.150;18.172;2023-07-02T10:09:43;99998.05;;;24.17;36.92
77450;BME280;66536;53.150;18.172;2023-07-02T10:12:21;99979.35;;;24.34;36.16
77450;BME280;66536;53.150;18.172;2023-07-02T10:14:49;99997.14;;;24.53;36.38
77450;BME280;66536;53.150;18.172;2023-07-02T10:17:27;99983.17;;;24.74;35.16
77450;BME280;66536;53.150;18.172;2023-07-02T10:19:55;99980.96;;;24.84;35.30
77450;BME280;66536;53.150;18.172;2023-07-02T10:22:22;99986.30;;;25.14;35.13
77450;BME280;66536;53.150;18.172;2023-07-02T10:24:57;100001.82;;;25.58;34.71
77450;BME280;66536;53.150;18.172;2023-07-02T10:27:35;100012.73;;;25.82;32.67
77450;BME280;66536;53.150;18.172;2023-07-02T10:30:04;100002.00;;;25.63;32.30
77450;BME280;66536;53.150;18.172;2023-07-02T10:32:32;100011.89;;;25.41;32.82
77450;BME280;66536;53.150;18.172;2023-07-02T10:35:02;100002.90;;;25.07;33.26
77450;BME280;66536;53.150;18.172;2023-07-02T10:37:37;100001.27;;;24.79;33.97
77450;BME280;66536;53.150;18.172;2023-07-02T10:40:07;100001.39;;;24.70;34.00
77450;BME280;66536;53.150;18.172;2023-07-02T10:42:33;100016.38;;;24.87;33.53
77450;BME280;66536;53.150;18.172;2023-07-02T10:45:00;100003.20;;;25.03;33.95
77450;BME280;66536;53.150;18.172;2023-07-02T10:47:28;99999.67;;;25.25;33.21
77450;BME280;66536;53.150;18.172;2023-07-02T10:49:54;100010.09;;;25.34;32.55
77450;BME280;66536;53.150;18.172;2023-07-02T10:52:20;100011.79;;;25.20;32.33
77450;BME280;66536;53.150;18.172;2023-07-02T10:54:47;99995.90;;;25.06;32.85
77450;BME280;66536;53.150;18.172;2023-07-02T10:57:15;99992.27;;;24.93;33.06
77450;BME280;66536;53.150;18.172;2023-07-02T10:59:47;99980.71;;;24.89;33.58
77450;BME280;66536;53.150;18.172;2023-07-02T11:02:14;99987.04;;;24.95;33.62
77450;BME280;66536;53.150;18.172;2023-07-02T11:04:41;99987.51;;;25.20;33.76
77450;BME280;66536;53.150;18.172;2023-07-02T11:07:10;99989.09;;;25.54;33.78
77450;BME280;66536;53.150;18.172;2023-07-02T11:09:37;100000.87;;;25.92;32.88
77450;BME280;66536;53.150;18.172;2023-07-02T11:12:03;99992.67;;;25.89;30.96
77450;BME280;66536;53.150;18.172;2023-07-02T11:14:33;99974.73;;;25.77;32.02
77450;BME280;66536;53.150;18.172;2023-07-02T11:17:05;99996.58;;;25.82;32.74
77450;BME280;66536;53.150;18.172;2023-07-02T11:19:33;99993.35;;;25.87;32.96
77450;BME280;66536;53.150;18.172;2023-07-02T11:22:00;99985.07;;;25.97;32.50
77450;BME280;66536;53.150;18.172;2023-07-02T11:24:33;100001.25;;;26.24;31.86
77450;BME280;66536;53.150;18.172;2023-07-02T11:27:03;100010.77;;;26.54;31.05
77450;BME280;66536;53.150;18.172;2023-07-02T11:29:34;100009.23;;;26.80;30.82
77450;BME280;66536;53.150;18.172;2023-07-02T11:32:09;100010.16;;;26.90;30.58
77450;BME280;66536;53.150;18.172;2023-07-02T11:34:37;100015.92;;;26.77;30.66
77450;BME280;66536;53.150;18.172;2023-07-02T11:37:03;100010.09;;;26.69;30.83
77450;BME280;66536;53.150;18.172;2023-07-02T11:39:30;100012.17;;;26.42;30.94
77450;BME280;66536;53.150;18.172;2023-07-02T11:41:57;100000.33;;;26.07;31.50
77450;BME280;66536;53.150;18.172;2023-07-02T11:44:23;99998.97;;;25.69;32.27
77450;BME280;66536;53.150;18.172;2023-07-02T11:46:50;99995.14;;;25.51;32.88
77450;BME280;66536;53.150;18.172;2023-07-02T11:49:16;100014.70;;;25.30;32.38
77450;BME280;66536;53.150;18.172;2023-07-02T11:51:43;100008.21;;;25.19;32.47
77450;BME280;66536;53.150;18.172;2023-07-02T11:54:14;100007.57;;;25.18;32.28
77450;BME280;66536;53.150;18.172;2023-07-02T11:56:41;100013.51;;;25.06;31.87
77450;BME280;66536;53.150;18.172;2023-07-02T11:59:08;99998.45;;;24.83;32.23
77450;BME280;66536;53.150;18.172;2023-07-02T12:01:35;99997.69;;;24.79;32.54
77450;BME280;66536;53.150;18.172;2023-07-02T12:04:01;100003.20;;;24.75;32.28
77450;BME280;66536;53.150;18.172;2023-07-02T12:06:27;100010.61;;;24.72;32.32
77450;BME280;66536;53.150;18.172;2023-07-02T12:08:53;100009.50;;;24.93;32.37
77450;BME280;66536;53.150;18.172;2023-07-02T12:11:19;100005.09;;;25.19;32.33
77450;BME280;66536;53.150;18.172;2023-07-02T12:13:45;99998.73;;;25.35;32.28
77450;BME280;66536;53.150;18.172;2023-07-02T12:16:11;100000.71;;;25.34;32.02
77450;BME280;66536;53.150;18.172;2023-07-02T12:18:37;100008.39;;;25.27;31.95
77450;BME280;66536;53.150;18.172;2023-07-02T12:21:03;99991.09;;;25.47;31.97
77450;BME280;66536;53.150;18.172;2023-07-02T12:23:29;99993.89;;;25.89;31.68
77450;BME280;66536;53.150;18.172;2023-07-02T12:25:55;100008.33;;;26.41;31.34
77450;BME280;66536;53.150;18.172;2023-07-02T12:28:21;100013.06;;;26.65;30.15
77450;BME280;66536;53.150;18.172;2023-07-02T12:30:47;100007.76;;;26.61;30.00
77450;BME280;66536;53.150;18.172;2023-07-02T12:33:13;100001.96;;;26.32;30.28
77450;BME280;66536;53.150;18.172;2023-07-02T12:35:39;100005.24;;;26.09;30.80
77450;BME280;66536;53.150;18.172;2023-07-02T12:38:05;100006.77;;;25.87;31.07
77450;BME280;66536;53.150;18.172;2023-07-02T12:40:34;100018.80;;;25.66;31.52
77450;BME280;66536;53.150;18.172;2023-07-02T12:43:00;100015.59;;;25.50;32.11
77450;BME280;66536;53.150;18.172;2023-07-02T12:45:26;100021.77;;;25.43;32.11
77450;BME280;66536;53.150;18.172;2023-07-02T12:47:52;100018.92;;;25.50;32.48
77450;BME280;66536;53.150;18.172;2023-07-02T12:50:18;100025.09;;;25.70;32.26